Time;durP1;ratioP1;P1;durP2;ratioP2;P2;SDS_P1;SDS_P2;PMS_P1;PMS_P2;Temp;Humidity;BMP_temperature;BMP_pressure;BME280_temperature;BME280_humidity;BME280_pressure;Samples;Min_cycle;Max_cycle;Signal;HPM_P1;HPM_P2
2023/01/18 00:00:39;;;;;;;;;;;;;;;14.49;53.78;99099.66;2113275;28;19935;-49
2023/01/18 00:01:41;;;;;;;;;;;;;;;14.49;53.77;99096.22;2119031;28;19974;-48
2023/01/18 00:02:45;;;;;;;;;;;;;;;14.48;53.51;99094.66;2113185;28;19935;-49
2023/01/18 00:03:48;;;;;;;;;;;;;;;14.49;53.77;99099.66;2114486;28;19927;-50
2023/01/18 00:04:49;;;;;;;;;;;;;;;14.48;53.56;99092.72;2114719;27;20398;-51
2023/01/18 00:05:54;;;;;;;;;;;;;;;14.49;53.87;99098.91;2115148;28;19932;-51
2023/01/18 00:06:56;;;;;;;;;;;;;;;14.49;53.80;99105.09;2115283;27;19931;-51
2023/01/18 00:07:58;;;;;;;;;;;;;;;14.48;53.79;99102.78;2116331;27;19935;-49
2023/01/18 00:09:00;;;;;;;;;;;;;;;14.48;53.66;99098.13;2122358;27;19924;-50
2023/01/18 00:10:03;;;;;;;;;;;;;;;14.48;53.81;99098.13;2120289;27;20314;-48
2023/01/18 00:11:05;;;;;;;;;;;;;;;14.46;53.54;99094.31;2123283;27;19943;-50
2023/01/18 00:12:07;;;;;;;;;;;;;;;14.47;53.71;99101.25;2114694;28;19934;-50
2023/01/18 00:13:09;;;;;;;;;;;;;;;14.47;53.68;99095.84;2115666;27;19923;-51
2023/01/18 00:14:12;;;;;;;;;;;;;;;14.47;53.82;99098.56;2115043;28;19932;-49
2023/01/18 00:15:15;;;;;;;;;;;;;;;14.48;53.53;99100.84;2114912;28;19928;-50
2023/01/18 00:16:19;;;;;;;;;;;;;;;14.47;53.86;99109.41;2116043;27;20569;-52
2023/01/18 00:17:21;;;;;;;;;;;;;;;14.46;53.77;99099.75;2115052;28;20298;-51
2023/01/18 00:18:23;;;;;;;;;;;;;;;14.46;53.78;99095.06;2115798;27;19927;-50
2023/01/18 00:19:25;;;;;;;;;;;;;;;14.46;53.70;99099.75;2116042;27;19928;-50
2023/01/18 00:20:28;;;;;;;;;;;;;;;14.46;53.70;99100.50;2114865;28;19927;-51
2023/01/18 00:21:30;;;;;;;;;;;;;;;14.46;53.63;99094.31;2115193;27;19965;-50
2023/01/18 00:22:32;;;;;;;;;;;;;;;14.46;53.48;99097.03;2115893;27;20048;-47
2023/01/18 00:23:34;;;;;;;;;;;;;;;14.45;53.71;99093.53;2114930;28;19931;-46
2023/01/18 00:24:37;;;;;;;;;;;;;;;14.45;53.46;99093.53;2115916;27;19923;-47
2023/01/18 00:25:38;;;;;;;;;;;;;;;14.45;53.31;99092.75;2114827;27;20045;-49
2023/01/18 00:26:42;;;;;;;;;;;;;;;14.45;53.39;99098.97;2114961;28;19928;-50
2023/01/18 00:27:45;;;;;;;;;;;;;;;14.45;53.93;99103.63;2115848;27;19924;-50
2023/01/18 00:28:48;;;;;;;;;;;;;;;14.46;53.67;99099.75;2115234;27;20307;-49
2023/01/18 00:29:49;;;;;;;;;;;;;;;14.45;53.72;99107.09;2115071;27;19924;-51
2023/01/18 00:30:53;;;;;;;;;;;;;;;14.45;53.86;99103.63;2115679;27;19936;-47
2023/01/18 00:31:55;;;;;;;;;;;;;;;14.45;53.38;99098.19;2105812;28;19928;-50
2023/01/18 00:32:58;;;;;;;;;;;;;;;14.44;53.72;99107.50;2106777;28;19928;-48
2023/01/18 00:34:00;;;;;;;;;;;;;;;14.44;53.45;99110.22;2121326;27;19943;-47
2023/01/18 00:35:06;;;;;;;;;;;;;;;14.45;53.50;99109.03;2123394;27;19931;-51
2023/01/18 00:36:07;;;;;;;;;;;;;;;14.45;53.52;99114.47;2116683;27;19924;-48
2023/01/18 00:37:10;;;;;;;;;;;;;;;14.44;53.68;99113.72;2116445;27;19927;-50
2023/01/18 00:38:12;;;;;;;;;;;;;;;14.44;53.45;99104.81;2115113;27;19931;-49
2023/01/18 00:39:15;;;;;;;;;;;;;;;14.44;53.33;99111.00;2116702;27;19924;-49
2023/01/18 00:40:17;;;;;;;;;;;;;;;14.43;53.53;99106.75;2116654;27;19938;-49
2023/01/18 00:41:20;;;;;;;;;;;;;;;14.43;53.38;99103.28;2114962;28;19950;-45
2023/01/18 00:43:41;;;;;;;;;;;;;;;14.44;53.55;99112.94;2118639;27;19935;-50
2023/01/18 00:44:43;;;;;;;;;;;;;;;14.44;53.50;99118.38;2123458;27;19927;-46
2023/01/18 00:45:45;;;;;;;;;;;;;;;14.43;53.48;99114.88;2118543;27;19924;-49
2023/01/18 00:46:48;;;;;;;;;;;;;;;14.43;53.66;99117.59;2117619;27;19943;-50
2023/01/18 00:47:51;;;;;;;;;;;;;;;14.42;53.52;99115.28;2123430;27;20368;-49
2023/01/18 00:48:53;;;;;;;;;;;;;;;14.43;53.65;99114.13;2116090;27;19934;-52
2023/01/18 00:49:56;;;;;;;;;;;;;;;14.42;53.65;99118.00;2116851;27;20271;-49
2023/01/18 00:50:57;;;;;;;;;;;;;;;14.42;53.47;99115.28;2114667;28;20291;-49
2023/01/18 00:52:00;;;;;;;;;;;;;;;14.42;53.39;99110.63;2117854;27;19934;-53
2023/01/18 00:53:01;;;;;;;;;;;;;;;14.42;53.45;99113.34;2122248;27;20325;-52
2023/01/18 00:54:04;;;;;;;;;;;;;;;14.42;53.85;99120.72;2122775;27;19927;-49
2023/01/18 00:55:06;;;;;;;;;;;;;;;14.42;53.50;99126.16;2120689;27;19924;-50
2023/01/18 00:56:10;;;;;;;;;;;;;;;14.42;53.89;99120.72;2114220;28;19928;-49
2023/01/18 00:57:12;;;;;;;;;;;;;;;14.42;53.50;99120.72;2108183;28;19928;-49
2023/01/18 00:58:15;;;;;;;;;;;;;;;14.42;53.84;99120.72;2115425;27;19928;-49
2023/01/18 00:59:17;;;;;;;;;;;;;;;14.41;53.26;99125.38;2114960;27;19933;-47
2023/01/18 01:00:25;;;;;;;;;;;;;;;14.42;53.54;99131.59;2114425;28;20375;-53
2023/01/18 01:01:28;;;;;;;;;;;;;;;14.41;53.85;99130.06;2115432;27;19972;-50
2023/01/18 01:02:31;;;;;;;;;;;;;;;14.40;53.43;99123.84;2114471;28;19990;-50
2023/01/18 01:06:43;;;;;;;;;;;;;;;14.40;53.86;99123.84;2116274;27;19978;-51
2023/01/18 01:07:36;;;;;;;;;;;;;;;14.40;53.31;99118.41;2114447;28;19931;-50
2023/01/18 01:08:39;;;;;;;;;;;;;;;14.39;53.61;99125.03;2116388;27;19928;-49
2023/01/18 01:09:43;;;;;;;;;;;;;;;14.40;53.75;99128.50;2116186;27;19923;-49
2023/01/18 01:10:46;;;;;;;;;;;;;;;14.40;53.74;99120.34;2114533;28;19928;-49
2023/01/18 01:26:33;;;;;;;;;;;;;;;14.38;53.50;99128.16;2114517;28;19935;-49
2023/01/18 01:27:34;;;;;;;;;;;;;;;14.38;53.34;99125.44;2116724;27;19935;-49
2023/01/18 01:28:37;;;;;;;;;;;;;;;14.37;53.62;99123.88;2114598;27;19924;-46
2023/01/18 01:29:39;;;;;;;;;;;;;;;14.38;53.68;99125.44;2116657;27;19935;-49
2023/01/18 01:30:43;;;;;;;;;;;;;;;14.37;53.72;99123.88;2116693;27;19930;-48
2023/01/18 01:31:45;;;;;;;;;;;;;;;14.37;53.48;99123.88;2114435;27;20030;-49
2023/01/18 01:32:47;;;;;;;;;;;;;;;14.37;53.67;99124.66;2114028;28;19934;-50
2023/01/18 01:33:50;;;;;;;;;;;;;;;14.38;53.69;99122.72;2121427;27;19927;-49
2023/01/18 01:34:53;;;;;;;;;;;;;;;14.37;53.65;99129.31;2114573;28;19932;-50
2023/01/18 01:35:55;;;;;;;;;;;;;;;14.36;53.31;99119.63;2114076;27;20386;-48
2023/01/18 01:36:58;;;;;;;;;;;;;;;14.36;53.78;99123.13;2115416;27;20405;-50
2023/01/18 01:37:59;;;;;;;;;;;;;;;14.36;53.43;99127.78;2115138;27;19928;-50
2023/01/18 01:39:02;;;;;;;;;;;;;;;14.36;53.79;99125.06;2116962;27;19923;-50
2023/01/18 01:40:04;;;;;;;;;;;;;;;14.37;53.72;99132.03;2114740;27;20383;-46
2023/01/18 01:41:08;;;;;;;;;;;;;;;14.36;53.54;99131.28;2122495;27;19930;-48
2023/01/18 01:42:11;;;;;;;;;;;;;;;14.36;53.62;99127.78;2120308;27;20401;-47
2023/01/18 01:43:13;;;;;;;;;;;;;;;14.35;53.21;99124.28;2114308;28;19958;-48
2023/01/18 01:44:33;;;;;;;;;;;;;;;14.35;53.58;99131.69;2114828;27;19938;-50
2023/01/18 01:45:35;;;;;;;;;;;;;;;14.35;53.81;99131.69;2116156;27;20022;-52
2023/01/18 01:46:43;;;;;;;;;;;;;;;14.34;53.72;99125.47;2114282;27;19927;-47
2023/01/18 01:47:46;;;;;;;;;;;;;;;14.35;53.60;99131.69;2114020;28;19939;-48
2023/01/18 01:48:48;;;;;;;;;;;;;;;14.35;53.74;99127.00;2116166;27;20713;-49
2023/01/18 01:49:55;;;;;;;;;;;;;;;14.34;53.86;99125.47;2114179;28;19934;-52
2023/01/18 01:50:56;;;;;;;;;;;;;;;14.34;53.27;99130.91;2121827;27;19923;-50
2023/01/18 01:52:02;;;;;;;;;;;;;;;14.35;53.65;99137.13;2119491;27;19938;-49
2023/01/18 01:53:05;;;;;;;;;;;;;;;14.35;53.75;99132.44;2105187;28;19924;-49
2023/01/18 01:54:10;;;;;;;;;;;;;;;14.34;53.60;99132.84;2105563;28;20449;-48
2023/01/18 01:55:14;;;;;;;;;;;;;;;14.34;53.39;99128.19;2114153;28;19932;-52
2023/01/18 01:56:18;;;;;;;;;;;;;;;14.35;53.84;99145.25;2114178;28;19927;-49
2023/01/18 01:57:20;;;;;;;;;;;;;;;14.33;53.30;99137.53;2114512;27;19950;-50
2023/01/18 01:58:26;;;;;;;;;;;;;;;14.34;53.73;99141.78;2116026;27;19927;-49
2023/01/18 01:59:28;;;;;;;;;;;;;;;14.34;53.21;99143.69;2122696;27;20579;-49
2023/01/18 02:00:31;;;;;;;;;;;;;;;14.34;53.48;99138.28;2117932;27;19938;-48
2023/01/18 02:01:33;;;;;;;;;;;;;;;14.33;53.47;99142.94;2116570;27;20347;-49
2023/01/18 02:02:37;;;;;;;;;;;;;;;14.34;53.35;99141.00;2120135;27;20366;-50
2023/01/18 02:03:39;;;;;;;;;;;;;;;14.34;53.86;99151.84;2119732;27;20446;-50
2023/01/18 02:04:43;;;;;;;;;;;;;;;14.34;53.40;99141.00;2114009;28;20379;-51
2023/01/18 02:05:48;;;;;;;;;;;;;;;14.33;53.58;99137.53;2116200;27;20006;-50
2023/01/18 02:06:50;;;;;;;;;;;;;;;14.33;53.65;99142.19;2114074;28;19928;-51
2023/01/18 02:07:53;;;;;;;;;;;;;;;14.34;53.76;99143.69;2114168;27;19927;-46
2023/01/18 02:08:55;;;;;;;;;;;;;;;14.33;53.34;99142.19;2115646;27;19931;-50
2023/01/18 02:09:58;;;;;;;;;;;;;;;14.33;53.42;99140.25;2115187;27;19927;-49
2023/01/18 02:11:00;;;;;;;;;;;;;;;14.33;53.55;99142.19;2104953;28;19935;-49
2023/01/18 02:12:02;;;;;;;;;;;;;;;14.32;53.77;99143.34;2104726;28;19928;-47
2023/01/18 02:13:07;;;;;;;;;;;;;;;14.33;53.44;99142.19;2117132;27;19931;-49
2023/01/18 02:14:11;;;;;;;;;;;;;;;14.33;53.57;99148.38;2119038;27;20512;-49
2023/01/18 02:15:14;;;;;;;;;;;;;;;14.33;53.54;99144.88;2104696;28;19932;-51
2023/01/18 02:16:19;;;;;;;;;;;;;;;14.33;53.41;99144.88;2105041;28;20450;-47
2023/01/18 02:17:31;;;;;;;;;;;;;;;14.32;53.76;99144.09;2114113;28;20334;-46
2023/01/18 02:18:38;;;;;;;;;;;;;;;14.32;53.40;99143.34;2116007;27;19932;-48
2023/01/18 02:19:48;;;;;;;;;;;;;;;14.32;53.49;99149.53;2117582;27;19942;-50
2023/01/18 02:21:07;;;;;;;;;;;;;;;14.33;53.35;99144.88;2114195;27;19923;-53
2023/01/18 02:22:14;;;;;;;;;;;;;;;14.32;53.19;99143.34;2116892;27;19927;-50
2023/01/18 02:23:29;;;;;;;;;;;;;;;14.31;53.45;99142.59;2114629;27;19931;-52
2023/01/18 02:24:50;;;;;;;;;;;;;;;14.32;53.50;99146.81;2117485;27;19927;-51
2023/01/18 02:26:02;;;;;;;;;;;;;;;14.31;53.74;99133.66;2113692;28;19935;-48
2023/01/18 02:27:05;;;;;;;;;;;;;;;14.31;53.79;99142.59;2113905;28;19928;-49
2023/01/18 02:28:12;;;;;;;;;;;;;;;14.31;53.35;99148.00;2117403;27;19931;-48
2023/01/18 02:29:16;;;;;;;;;;;;;;;14.31;53.34;99139.09;2117391;27;19931;-48
2023/01/18 02:30:26;;;;;;;;;;;;;;;14.31;53.66;99139.88;2105572;28;20370;-51
2023/01/18 02:31:31;;;;;;;;;;;;;;;14.31;53.81;99141.81;2105965;28;19927;-49
2023/01/18 02:32:42;;;;;;;;;;;;;;;14.31;53.54;99147.22;2108177;28;20429;-48
2023/01/18 02:33:46;;;;;;;;;;;;;;;14.31;53.81;99139.09;2106007;27;20323;-50
2023/01/18 02:34:49;;;;;;;;;;;;;;;14.30;53.59;99141.03;2114043;27;20295;-49
2023/01/18 02:35:54;;;;;;;;;;;;;;;14.30;53.71;99143.75;2115927;27;19927;-47
2023/01/18 02:36:59;;;;;;;;;;;;;;;14.31;53.68;99133.66;2115489;27;19927;-49
2023/01/18 02:38:06;;;;;;;;;;;;;;;14.31;53.80;99141.81;2122543;27;19934;-49
2023/01/18 02:39:11;;;;;;;;;;;;;;;14.30;53.59;99140.28;2121595;27;20314;-50
2023/01/18 02:40:19;;;;;;;;;;;;;;;14.30;53.69;99148.41;2114730;27;20114;-46
2023/01/18 02:46:29;;;;;;;;;;;;;;;14.31;53.55;99147.22;2114061;28;20496;-51
2023/01/18 02:46:53;;;;;;;;;;;;;;;14.29;53.70;99144.16;2114051;28;19974;-50
2023/01/18 02:47:54;;;;;;;;;;;;;;;14.30;53.88;99145.72;2113895;28;19931;-50
2023/01/18 02:48:57;;;;;;;;;;;;;;;14.29;53.90;99142.22;2113924;28;20306;-49
2023/01/18 02:49:59;;;;;;;;;;;;;;;14.29;53.75;99139.50;2113787;27;19931;-49
2023/01/18 02:51:02;;;;;;;;;;;;;;;14.30;53.66;99145.72;2113791;28;20050;-47
2023/01/18 02:52:05;;;;;;;;;;;;;;;14.29;53.36;99147.63;2113372;27;19938;-49
2023/01/18 02:53:07;;;;;;;;;;;;;;;14.30;53.59;99140.28;2113336;27;19930;-50
2023/01/18 02:54:10;;;;;;;;;;;;;;;14.28;53.52;99143.41;2113753;28;20303;-47
2023/01/18 02:55:16;;;;;;;;;;;;;;;14.28;53.76;99142.63;2113261;28;20009;-49
2023/01/18 02:56:20;;;;;;;;;;;;;;;14.28;53.56;99146.13;2113429;27;19927;-49
2023/01/18 02:57:23;;;;;;;;;;;;;;;14.27;53.28;99147.25;2113676;28;19935;-51
2023/01/18 02:58:28;;;;;;;;;;;;;;;14.29;53.32;99152.28;2113385;28;19924;-50
2023/01/18 02:59:35;;;;;;;;;;;;;;;14.28;53.37;99156.19;2113765;28;19930;-47
2023/01/18 03:00:38;;;;;;;;;;;;;;;14.29;53.37;99161.22;2113949;27;19985;-49
2023/01/18 03:01:43;;;;;;;;;;;;;;;14.28;53.74;99153.47;2113278;28;19927;-45
2023/01/18 03:02:45;;;;;;;;;;;;;;;14.28;53.71;99161.63;2113476;27;20002;-48
2023/01/18 03:03:50;;;;;;;;;;;;;;;14.28;53.73;99156.97;2113652;28;19927;-48
2023/01/18 03:04:53;;;;;;;;;;;;;;;14.28;53.82;99156.97;2113559;28;19931;-49
2023/01/18 03:05:58;;;;;;;;;;;;;;;14.28;53.36;99161.63;2114329;27;20290;-46
2023/01/18 03:07:02;;;;;;;;;;;;;;;14.27;53.69;99157.38;2121990;27;20290;-48
2023/01/18 03:08:08;;;;;;;;;;;;;;;14.27;53.35;99157.38;2120056;27;19931;-49
2023/01/18 03:09:20;;;;;;;;;;;;;;;14.27;53.67;99160.09;2114689;27;19984;-48
2023/01/18 03:10:25;;;;;;;;;;;;;;;14.28;53.56;99161.63;2113597;28;20290;-51
2023/01/18 03:11:33;;;;;;;;;;;;;;;14.27;53.45;99162.81;2113292;28;19934;-48
2023/01/18 03:12:45;;;;;;;;;;;;;;;14.27;53.35;99160.09;2114168;28;19928;-49
2023/01/18 03:13:58;;;;;;;;;;;;;;;14.26;53.39;99162.03;2120041;27;19927;-50
2023/01/18 03:15:07;;;;;;;;;;;;;;;14.27;53.67;99151.94;2115260;27;19928;-47
2023/01/18 03:16:11;;;;;;;;;;;;;;;14.27;53.83;99158.13;2113578;28;19939;-48
2023/01/18 03:17:17;;;;;;;;;;;;;;;14.27;53.79;99157.38;2114043;28;19928;-48
2023/01/18 03:18:22;;;;;;;;;;;;;;;14.27;53.39;99162.81;2121307;27;19927;-46
2023/01/18 03:20:52;;;;;;;;;;;;;;;14.26;53.65;99153.88;2113746;28;19931;-49
2023/01/18 03:21:54;;;;;;;;;;;;;;;14.25;53.27;99149.63;2113849;28;20670;-49
2023/01/18 03:24:21;;;;;;;;;;;;;;;14.26;53.30;99155.81;2116440;27;20195;-50
2023/01/18 03:25:25;;;;;;;;;;;;;;;14.27;53.52;99157.38;2114271;28;20306;-48
2023/01/18 03:26:28;;;;;;;;;;;;;;;14.26;53.74;99155.81;2120994;27;19924;-48
2023/01/18 03:34:22;;;;;;;;;;;;;;;14.26;53.55;99161.25;2118296;27;19935;-48
2023/01/18 03:35:26;;;;;;;;;;;;;;;14.25;53.66;99162.44;2121066;28;19927;-46
2023/01/18 03:36:31;;;;;;;;;;;;;;;14.25;53.70;99157.00;2121889;28;20370;-49
2023/01/18 03:37:36;;;;;;;;;;;;;;;14.25;53.75;99162.44;2119391;27;20378;-48
2023/01/18 03:38:41;;;;;;;;;;;;;;;14.24;53.34;99158.94;2121369;28;20426;-48
2023/01/18 03:39:44;;;;;;;;;;;;;;;14.24;53.45;99158.16;2121995;28;19977;-46
2023/01/18 03:40:46;;;;;;;;;;;;;;;14.24;53.73;99152.72;2120509;28;19927;-48
2023/01/18 03:41:50;;;;;;;;;;;;;;;14.24;53.73;99158.16;2113859;28;19927;-47
2023/01/18 03:42:56;;;;;;;;;;;;;;;14.24;53.72;99158.94;2113554;28;20228;-47
2023/01/18 03:44:02;;;;;;;;;;;;;;;14.24;53.50;99158.94;2113275;28;19927;-51
2023/01/18 03:45:08;;;;;;;;;;;;;;;14.23;53.62;99160.09;2112936;28;20086;-48
2023/01/18 03:46:13;;;;;;;;;;;;;;;14.25;53.66;99162.44;2113567;28;19928;-49
2023/01/18 03:47:16;;;;;;;;;;;;;;;14.24;53.63;99155.44;2118686;28;19939;-48
2023/01/18 03:48:18;;;;;;;;;;;;;;;14.24;53.65;99158.16;2121528;28;20690;-49
2023/01/18 03:49:21;;;;;;;;;;;;;;;14.23;53.60;99160.09;2110536;28;19924;-49
2023/01/18 03:50:27;;;;;;;;;;;;;;;14.23;53.68;99164.75;2108505;28;19950;-48
2023/01/18 03:51:35;;;;;;;;;;;;;;;14.24;53.49;99158.16;2113284;28;19927;-48
2023/01/18 03:52:39;;;;;;;;;;;;;;;14.23;53.29;99160.09;2122011;28;19927;-48
2023/01/18 03:53:45;;;;;;;;;;;;;;;14.24;53.28;99161.66;2116833;28;19928;-49
2023/01/18 03:54:53;;;;;;;;;;;;;;;14.23;53.24;99164.75;2113159;28;19931;-50
2023/01/18 03:55:58;;;;;;;;;;;;;;;14.22;53.29;99163.97;2113405;28;19928;-47
2023/01/18 03:57:01;;;;;;;;;;;;;;;14.23;53.46;99164.75;2113235;28;19931;-48
2023/01/18 03:58:08;;;;;;;;;;;;;;;14.23;53.19;99159.31;2114906;28;19927;-51
2023/01/18 03:59:09;;;;;;;;;;;;;;;14.23;53.24;99162.03;2113474;28;20429;-48
2023/01/18 04:00:14;;;;;;;;;;;;;;;14.22;53.29;99165.94;2113441;28;19927;-57
2023/01/18 04:01:17;;;;;;;;;;;;;;;14.22;53.48;99161.25;2113427;28;19972;-59
2023/01/18 04:02:20;;;;;;;;;;;;;;;14.22;53.56;99158.53;2118228;28;19927;-59
2023/01/18 04:03:22;;;;;;;;;;;;;;;14.22;53.27;99155.06;2118683;28;19982;-58
2023/01/18 04:04:25;;;;;;;;;;;;;;;14.22;53.67;99161.25;2113491;28;19934;-58
2023/01/18 04:05:26;;;;;;;;;;;;;;;14.21;53.61;99159.72;2114211;28;19935;-57
2023/01/18 04:06:31;;;;;;;;;;;;;;;14.23;53.65;99167.47;2114882;28;19938;-56
2023/01/18 04:07:32;;;;;;;;;;;;;;;14.22;53.24;99160.50;2104456;28;19935;-59
2023/01/18 04:08:35;;;;;;;;;;;;;;;14.22;53.21;99163.22;2109047;28;20379;-59
2023/01/18 04:09:39;;;;;;;;;;;;;;;14.22;53.50;99160.50;2115708;28;19966;-59
2023/01/18 04:10:41;;;;;;;;;;;;;;;14.21;53.88;99161.66;2113701;28;19927;-57
2023/01/18 04:11:43;;;;;;;;;;;;;;;14.21;53.36;99158.94;2121089;28;20718;-59
2023/01/18 04:12:45;;;;;;;;;;;;;;;14.22;53.62;99155.06;2118646;28;19923;-59
2023/01/18 04:13:50;;;;;;;;;;;;;;;14.20;53.24;99158.19;2113403;28;19931;-55
2023/01/18 04:14:55;;;;;;;;;;;;;;;14.21;53.61;99165.16;2113038;28;20406;-59
2023/01/18 04:15:57;;;;;;;;;;;;;;;14.21;53.60;99162.44;2113104;28;19928;-57
2023/01/18 04:17:01;;;;;;;;;;;;;;;14.20;53.33;99160.91;2113489;28;19935;-56
2023/01/18 04:18:03;;;;;;;;;;;;;;;14.20;53.45;99152.75;2113502;28;19930;-59
2023/01/18 04:19:07;;;;;;;;;;;;;;;14.21;53.65;99169.81;2113382;28;19924;-59
2023/01/18 04:20:09;;;;;;;;;;;;;;;14.20;53.60;99158.19;2113451;28;19935;-58
2023/01/18 04:21:12;;;;;;;;;;;;;;;14.20;53.69;99155.47;2113414;28;19923;-58
2023/01/18 04:22:13;;;;;;;;;;;;;;;14.20;53.78;99152.75;2113249;28;20398;-56
2023/01/18 04:23:16;;;;;;;;;;;;;;;14.20;53.06;99158.19;2113381;28;19924;-59
2023/01/18 04:24:17;;;;;;;;;;;;;;;14.20;53.54;99157.41;2113145;28;19928;-57
2023/01/18 04:25:21;;;;;;;;;;;;;;;14.20;53.28;99157.41;2113147;28;19935;-54
2023/01/18 04:26:22;;;;;;;;;;;;;;;14.19;53.42;99159.34;2113767;28;20485;-56
2023/01/18 04:27:25;;;;;;;;;;;;;;;14.20;53.58;99158.19;2113152;28;19927;-58
2023/01/18 04:28:27;;;;;;;;;;;;;;;14.19;53.71;99155.88;2113269;28;19932;-58
2023/01/18 04:29:30;;;;;;;;;;;;;;;14.19;53.72;99161.31;2117122;28;19988;-58
2023/01/18 04:30:32;;;;;;;;;;;;;;;14.19;53.53;99161.31;2116469;28;20534;-56
2023/01/18 04:31:35;;;;;;;;;;;;;;;14.19;53.63;99156.63;2113195;28;19928;-58
2023/01/18 04:32:38;;;;;;;;;;;;;;;14.19;53.62;99155.88;2104081;28;20023;-57
2023/01/18 04:33:40;;;;;;;;;;;;;;;14.19;53.28;99166.75;2107615;28;20506;-58
2023/01/18 04:34:42;;;;;;;;;;;;;;;14.19;53.75;99166.75;2113126;28;20088;-58
2023/01/18 04:35:45;;;;;;;;;;;;;;;14.19;53.23;99161.31;2113398;28;19931;-57
2023/01/18 04:36:47;;;;;;;;;;;;;;;14.19;53.27;99161.31;2113476;28;20406;-58
2023/01/18 04:37:50;;;;;;;;;;;;;;;14.17;53.19;99163.66;2113346;28;20433;-52
2023/01/18 04:38:52;;;;;;;;;;;;;;;14.19;53.44;99164.78;2113633;28;20298;-59
2023/01/18 04:39:54;;;;;;;;;;;;;;;14.19;53.48;99161.31;2113904;28;20031;-59
2023/01/18 04:41:01;;;;;;;;;;;;;;;14.18;53.57;99159.75;2113296;28;19924;-59
2023/01/18 04:42:03;;;;;;;;;;;;;;;14.18;53.39;99171.38;2113905;28;20001;-56
2023/01/18 04:43:06;;;;;;;;;;;;;;;14.18;53.54;99165.19;2113126;28;20307;-55
2023/01/18 04:44:08;;;;;;;;;;;;;;;14.18;53.70;99173.31;2113183;28;19927;-56
2023/01/18 04:45:12;;;;;;;;;;;;;;;14.18;53.50;99171.38;2104375;28;19935;-59
2023/01/18 04:46:14;;;;;;;;;;;;;;;14.18;53.21;99171.38;2104470;28;19934;-58
2023/01/18 04:47:17;;;;;;;;;;;;;;;14.17;53.73;99169.88;2112827;28;20703;-57
2023/01/18 04:48:20;;;;;;;;;;;;;;;14.18;53.43;99176.03;2113719;28;20374;-58
2023/01/18 04:49:23;;;;;;;;;;;;;;;14.18;53.53;99181.47;2113202;28;19928;-58
2023/01/18 04:50:24;;;;;;;;;;;;;;;14.17;53.39;99175.28;2114645;28;19928;-59
2023/01/18 04:51:27;;;;;;;;;;;;;;;14.18;53.47;99170.63;2115318;27;19932;-59
2023/01/18 04:52:31;;;;;;;;;;;;;;;14.18;53.43;99176.03;2114713;28;19934;-59
2023/01/18 04:53:34;;;;;;;;;;;;;;;14.17;53.69;99169.09;2115297;27;19934;-58
2023/01/18 04:54:36;;;;;;;;;;;;;;;14.18;53.28;99170.63;2114559;27;19976;-59
2023/01/18 04:55:38;;;;;;;;;;;;;;;14.17;53.17;99172.56;2105395;28;19935;-55
2023/01/18 04:56:41;;;;;;;;;;;;;;;14.17;53.23;99174.50;2106059;28;19928;-58
2023/01/18 04:57:43;;;;;;;;;;;;;;;14.17;53.47;99175.28;2105321;28;19935;-59
2023/01/18 04:58:46;;;;;;;;;;;;;;;14.17;53.61;99169.09;2106319;28;19939;-58
2023/01/18 04:59:47;;;;;;;;;;;;;;;14.18;53.16;99176.03;2114142;28;19928;-59
2023/01/18 05:00:50;;;;;;;;;;;;;;;14.17;53.73;99179.94;2114913;28;20406;-58
2023/01/18 05:01:52;;;;;;;;;;;;;;;14.16;53.61;99176.44;2114233;28;19951;-59
2023/01/18 05:02:54;;;;;;;;;;;;;;;14.16;53.92;99179.16;2117152;27;19932;-58
2023/01/18 05:03:58;;;;;;;;;;;;;;;14.16;53.69;99176.44;2123173;27;20396;-59
2023/01/18 05:05:00;;;;;;;;;;;;;;;14.17;53.73;99182.66;2122374;27;19927;-59
2023/01/18 05:06:03;;;;;;;;;;;;;;;14.17;53.69;99185.38;2122699;27;19927;-57
2023/01/18 05:07:06;;;;;;;;;;;;;;;14.16;53.72;99184.59;2113878;28;19928;-59
2023/01/18 05:08:07;;;;;;;;;;;;;;;14.16;53.58;99183.84;2113164;28;19946;-59
2023/01/18 05:09:11;;;;;;;;;;;;;;;14.15;53.17;99183.06;2114947;27;20299;-59
2023/01/18 05:10:12;;;;;;;;;;;;;;;14.15;53.17;99183.06;2116794;27;20377;-58
2023/01/18 05:11:16;;;;;;;;;;;;;;;14.16;53.31;99181.13;2114530;28;19927;-58
2023/01/18 05:12:17;;;;;;;;;;;;;;;14.15;53.56;99183.06;2114358;28;19954;-57
2023/01/18 05:13:20;;;;;;;;;;;;;;;14.15;53.17;99183.06;2114804;27;19931;-58
2023/01/18 05:14:21;;;;;;;;;;;;;;;14.14;53.66;99186.97;2114490;27;19934;-58
2023/01/18 05:15:24;;;;;;;;;;;;;;;14.16;53.49;99195.44;2114850;28;20666;-57
2023/01/18 05:16:26;;;;;;;;;;;;;;;14.16;53.39;99191.97;2114314;28;19934;-59
2023/01/18 05:17:29;;;;;;;;;;;;;;;14.16;53.05;99194.69;2114393;28;19928;-57
2023/01/18 05:18:31;;;;;;;;;;;;;;;14.15;53.62;99193.13;2114534;28;20019;-57
2023/01/18 05:19:35;;;;;;;;;;;;;;;14.15;53.52;99193.13;2114153;27;19928;-59
2023/01/18 05:20:36;;;;;;;;;;;;;;;14.15;53.49;99198.56;2114113;27;19935;-59
2023/01/18 05:21:39;;;;;;;;;;;;;;;14.15;53.29;99198.56;2114244;28;20022;-58
2023/01/18 05:22:41;;;;;;;;;;;;;;;14.16;53.23;99205.56;2114785;28;19928;-59
2023/01/18 05:23:43;;;;;;;;;;;;;;;14.15;53.06;99201.28;2114586;27;19927;-57
2023/01/18 05:24:45;;;;;;;;;;;;;;;14.14;53.55;99205.19;2114570;28;19923;-59
2023/01/18 05:25:51;;;;;;;;;;;;;;;14.15;53.46;99204.00;2114731;27;19927;-59
2023/01/18 05:26:53;;;;;;;;;;;;;;;14.15;53.32;99206.69;2114461;28;19935;-58
2023/01/18 05:27:56;;;;;;;;;;;;;;;14.14;53.58;99199.75;2121784;27;19924;-59
2023/01/18 05:28:58;;;;;;;;;;;;;;;14.14;53.23;99203.25;2122485;27;19932;-58
2023/01/18 05:30:00;;;;;;;;;;;;;;;14.14;53.64;99214.09;2122791;27;19980;-59
2023/01/18 05:31:03;;;;;;;;;;;;;;;14.14;53.56;99214.09;2115586;27;19928;-59
2023/01/18 05:32:05;;;;;;;;;;;;;;;14.14;53.52;99207.88;2114277;28;20367;-59
2023/01/18 05:33:08;;;;;;;;;;;;;;;14.14;53.15;99207.88;2115464;27;19934;-59
2023/01/18 05:34:10;;;;;;;;;;;;;;;14.14;53.57;99216.81;2116550;27;20390;-59
2023/01/18 05:35:14;;;;;;;;;;;;;;;14.14;53.25;99213.31;2114343;27;20397;-59
2023/01/18 05:36:16;;;;;;;;;;;;;;;14.13;53.34;99209.06;2114439;28;19931;-59
2023/01/18 05:37:18;;;;;;;;;;;;;;;14.14;53.59;99216.81;2114520;27;19928;-59
2023/01/18 05:38:22;;;;;;;;;;;;;;;14.12;53.14;99213.72;2114555;27;19928;-56
2023/01/18 05:39:25;;;;;;;;;;;;;;;14.12;53.55;99215.66;2114483;28;19935;-55
2023/01/18 05:40:28;;;;;;;;;;;;;;;14.12;53.55;99221.88;2114388;27;19924;-59
2023/01/18 05:41:29;;;;;;;;;;;;;;;14.12;53.27;99216.44;2114305;27;20363;-59
2023/01/18 05:42:32;;;;;;;;;;;;;;;14.13;53.27;99222.66;2114038;28;19932;-58
2023/01/18 05:43:37;;;;;;;;;;;;;;;14.13;53.55;99222.66;2114708;28;19935;-58
2023/01/18 05:44:39;;;;;;;;;;;;;;;14.12;53.36;99221.09;2114291;28;20046;-58
2023/01/18 05:45:41;;;;;;;;;;;;;;;14.13;53.41;99225.34;2114500;27;19950;-59
2023/01/18 05:46:44;;;;;;;;;;;;;;;14.13;53.16;99225.34;2114785;27;19934;-59
2023/01/18 05:47:45;;;;;;;;;;;;;;;14.12;53.47;99227.28;2114237;28;19939;-56
2023/01/18 05:48:51;;;;;;;;;;;;;;;14.11;53.17;99225.72;2114571;27;19934;-58
2023/01/18 05:49:52;;;;;;;;;;;;;;;14.12;53.25;99229.22;2114610;27;19938;-57
2023/01/18 05:50:56;;;;;;;;;;;;;;;14.12;53.16;99226.50;2105039;28;19950;-57
2023/01/18 05:51:58;;;;;;;;;;;;;;;14.11;53.27;99225.72;2111810;28;19931;-58
2023/01/18 05:53:01;;;;;;;;;;;;;;;14.12;53.25;99229.22;2115419;27;19946;-57
2023/01/18 05:54:05;;;;;;;;;;;;;;;14.11;53.43;99225.72;2105343;28;19932;-59
2023/01/18 05:55:08;;;;;;;;;;;;;;;14.11;53.60;99223.03;2106209;28;19928;-57
2023/01/18 05:56:10;;;;;;;;;;;;;;;14.12;53.63;99226.50;2114148;28;19934;-58
2023/01/18 05:57:12;;;;;;;;;;;;;;;14.12;53.63;99221.09;2112404;28;20334;-57
2023/01/18 05:58:14;;;;;;;;;;;;;;;14.11;53.67;99224.97;2110047;28;19973;-57
2023/01/18 05:59:17;;;;;;;;;;;;;;;14.11;53.63;99222.28;2114427;28;20412;-56
2023/01/18 06:00:19;;;;;;;;;;;;;;;14.11;53.57;99224.97;2104827;28;19939;-58
2023/01/18 06:01:21;;;;;;;;;;;;;;;14.11;53.36;99224.97;2104764;28;20023;-58
2023/01/18 06:02:23;;;;;;;;;;;;;;;14.10;53.58;99224.19;2114209;28;20298;-58
2023/01/18 06:03:25;;;;;;;;;;;;;;;14.11;53.61;99222.28;2114278;27;19931;-57
2023/01/18 06:04:27;;;;;;;;;;;;;;;14.11;53.39;99227.69;2114345;27;19927;-58